sensor_id;sensor_type;location;lat;lon;timestamp;P1;P2;P0
80639;PMS5003;69992;60.170;24.692;2024-03-02T00:00:08;15;12;
80639;PMS5003;69992;60.170;24.692;2024-03-02T00:02:34;10;10;
80639;PMS5003;69992;60.170;24.692;2024-03-02T00:04:59;12;10;
80639;PMS5003;69992;60.170;24.692;2024-03-02T00:07:25;10;10;
80639;PMS5003;69992;60.170;24.692;2024-03-02T00:09:53;13;12;
80639;PMS5003;69992;60.170;24.692;2024-03-02T00:12:16;13;11;
80639;PMS5003;69992;60.170;24.692;2024-03-02T00:14:42;10;9;
80639;PMS5003;69992;60.170;24.692;2024-03-02T00:17:08;10;10;
80639;PMS5003;69992;60.170;24.692;2024-03-02T00:19:33;13;12;
80639;PMS5003;69992;60.170;24.692;2024-03-02T00:22:00;11;11;
80639;PMS5003;69992;60.170;24.692;2024-03-02T00:24:31;16;15;
80639;PMS5003;69992;60.170;24.692;2024-03-02T00:26:51;12;12;
80639;PMS5003;69992;60.170;24.692;2024-03-02T00:29:16;12;12;
80639;PMS5003;69992;60.170;24.692;2024-03-02T00:31:42;12;12;
80639;PMS5003;69992;60.170;24.692;2024-03-02T00:34:08;11;11;
80639;PMS5003;69992;60.170;24.692;2024-03-02T00:36:34;13;13;
80639;PMS5003;69992;60.170;24.692;2024-03-02T00:39:02;16;15;
80639;PMS5003;69992;60.170;24.692;2024-03-02T00:41:29;13;12;
80639;PMS5003;69992;60.170;24.692;2024-03-02T00:43:56;16;15;
80639;PMS5003;69992;60.170;24.692;2024-03-02T00:46:17;15;15;
80639;PMS5003;69992;60.170;24.692;2024-03-02T00:48:46;17;16;
80639;PMS5003;69992;60.170;24.692;2024-03-02T00:51:08;17;16;
80639;PMS5003;69992;60.170;24.692;2024-03-02T00:53:33;27;21;
80639;PMS5003;69992;60.170;24.692;2024-03-02T00:55:59;17;17;
80639;PMS5003;69992;60.170;24.692;2024-03-02T00:58:25;19;18;
80639;PMS5003;69992;60.170;24.692;2024-03-02T01:00:50;18;17;
80639;PMS5003;69992;60.170;24.692;2024-03-02T01:03:19;20;17;
80639;PMS5003;69992;60.170;24.692;2024-03-02T01:05:41;23;20;
80639;PMS5003;69992;60.170;24.692;2024-03-02T01:08:07;21;19;
80639;PMS5003;69992;60.170;24.692;2024-03-02T01:10:32;21;19;
80639;PMS5003;69992;60.170;24.692;2024-03-02T01:12:58;20;19;
80639;PMS5003;69992;60.170;24.692;2024-03-02T01:15:25;17;16;
80639;PMS5003;69992;60.170;24.692;2024-03-02T01:17:49;21;21;
80639;PMS5003;69992;60.170;24.692;2024-03-02T01:20:14;20;19;
80639;PMS5003;69992;60.170;24.692;2024-03-02T01:22:40;23;20;
80639;PMS5003;69992;60.170;24.692;2024-03-02T01:25:06;17;16;
80639;PMS5003;69992;60.170;24.692;2024-03-02T01:27:32;27;19;
80639;PMS5003;69992;60.170;24.692;2024-03-02T01:29:56;39;38;
80639;PMS5003;69992;60.170;24.692;2024-03-02T01:32:21;57;49;
80639;PMS5003;69992;60.170;24.692;2024-03-02T01:34:47;21;20;
80639;PMS5003;69992;60.170;24.692;2024-03-02T01:37:12;23;19;
80639;PMS5003;69992;60.170;24.692;2024-03-02T01:39:38;20;20;
80639;PMS5003;69992;60.170;24.692;2024-03-02T01:42:03;20;19;
80639;PMS5003;69992;60.170;24.692;2024-03-02T01:44:28;16;13;
80639;PMS5003;69992;60.170;24.692;2024-03-02T01:46:54;16;15;
80639;PMS5003;69992;60.170;24.692;2024-03-02T01:49:19;17;16;
80639;PMS5003;69992;60.170;24.692;2024-03-02T01:51:45;21;17;
80639;PMS5003;69992;60.170;24.692;2024-03-02T01:54:11;12;12;
80639;PMS5003;69992;60.170;24.692;2024-03-02T01:56:36;16;13;
80639;PMS5003;69992;60.170;24.692;2024-03-02T01:59:02;16;16;
80639;PMS5003;69992;60.170;24.692;2024-03-02T02:01:28;12;12;
80639;PMS5003;69992;60.170;24.692;2024-03-02T02:03:53;17;15;
80639;PMS5003;69992;60.170;24.692;2024-03-02T02:06:19;16;16;
80639;PMS5003;69992;60.170;24.692;2024-03-02T02:08:45;12;12;
80639;PMS5003;69992;60.170;24.692;2024-03-02T02:11:10;12;12;
80639;PMS5003;69992;60.170;24.692;2024-03-02T02:13:39;15;15;
80639;PMS5003;69992;60.170;24.692;2024-03-02T02:16:05;12;11;
80639;PMS5003;69992;60.170;24.692;2024-03-02T02:18:28;12;12;
80639;PMS5003;69992;60.170;24.692;2024-03-02T02:20:53;12;12;
80639;PMS5003;69992;60.170;24.692;2024-03-02T02:23:19;16;15;
80639;PMS5003;69992;60.170;24.692;2024-03-02T02:25:45;11;10;
80639;PMS5003;69992;60.170;24.692;2024-03-02T02:28:11;12;11;
80639;PMS5003;69992;60.170;24.692;2024-03-02T02:30:37;11;11;
80639;PMS5003;69992;60.170;24.692;2024-03-02T02:33:03;15;13;
80639;PMS5003;69992;60.170;24.692;2024-03-02T02:35:28;12;12;
80639;PMS5003;69992;60.170;24.692;2024-03-02T02:37:54;13;12;
80639;PMS5003;69992;60.170;24.692;2024-03-02T02:40:19;18;15;
80639;PMS5003;69992;60.170;24.692;2024-03-02T02:42:44;12;11;
80639;PMS5003;69992;60.170;24.692;2024-03-02T02:45:10;12;11;
80639;PMS5003;69992;60.170;24.692;2024-03-02T02:47:36;10;9;
80639;PMS5003;69992;60.170;24.692;2024-03-02T02:50:02;12;12;
80639;PMS5003;69992;60.170;24.692;2024-03-02T02:52:30;13;12;
80639;PMS5003;69992;60.170;24.692;2024-03-02T02:54:53;11;11;
80639;PMS5003;69992;60.170;24.692;2024-03-02T02:57:19;10;9;
80639;PMS5003;69992;60.170;24.692;2024-03-02T02:59:45;15;11;
80639;PMS5003;69992;60.170;24.692;2024-03-02T03:02:10;11;11;
80639;PMS5003;69992;60.170;24.692;2024-03-02T03:04:37;15;13;
80639;PMS5003;69992;60.170;24.692;2024-03-02T03:07:01;12;12;
80639;PMS5003;69992;60.170;24.692;2024-03-02T03:09:27;12;12;
80639;PMS5003;69992;60.170;24.692;2024-03-02T03:11:52;16;13;
80639;PMS5003;69992;60.170;24.692;2024-03-02T03:14:18;13;12;
80639;PMS5003;69992;60.170;24.692;2024-03-02T03:16:44;20;18;
80639;PMS5003;69992;60.170;24.692;2024-03-02T03:19:08;12;12;
80639;PMS5003;69992;60.170;24.692;2024-03-02T03:21:34;13;13;
80639;PMS5003;69992;60.170;24.692;2024-03-02T03:23:59;10;10;
80639;PMS5003;69992;60.170;24.692;2024-03-02T03:26:28;12;11;
80639;PMS5003;69992;60.170;24.692;2024-03-02T03:28:50;12;11;
80639;PMS5003;69992;60.170;24.692;2024-03-02T03:31:17;11;10;
80639;PMS5003;69992;60.170;24.692;2024-03-02T03:33:42;17;15;
80639;PMS5003;69992;60.170;24.692;2024-03-02T03:36:08;19;15;
80639;PMS5003;69992;60.170;24.692;2024-03-02T03:38:37;11;11;
80639;PMS5003;69992;60.170;24.692;2024-03-02T03:40:59;10;10;
80639;PMS5003;69992;60.170;24.692;2024-03-02T03:43:25;15;13;
80639;PMS5003;69992;60.170;24.692;2024-03-02T03:45:51;13;13;
80639;PMS5003;69992;60.170;24.692;2024-03-02T03:48:17;12;12;
80639;PMS5003;69992;60.170;24.692;2024-03-02T03:50:42;18;13;
80639;PMS5003;69992;60.170;24.692;2024-03-02T03:53:08;16;15;
80639;PMS5003;69992;60.170;24.692;2024-03-02T03:55:33;19;15;
80639;PMS5003;69992;60.170;24.692;2024-03-02T03:57:59;15;15;
80639;PMS5003;69992;60.170;24.692;2024-03-02T04:00:25;13;12;
80639;PMS5003;69992;60.170;24.692;2024-03-02T04:02:50;15;13;
80639;PMS5003;69992;60.170;24.692;2024-03-02T04:05:16;10;10;
80639;PMS5003;69992;60.170;24.692;2024-03-02T04:07:42;15;13;
80639;PMS5003;69992;60.170;24.692;2024-03-02T04:10:08;10;10;
80639;PMS5003;69992;60.170;24.692;2024-03-02T04:12:38;16;15;
80639;PMS5003;69992;60.170;24.692;2024-03-02T04:14:59;11;11;
80639;PMS5003;69992;60.170;24.692;2024-03-02T04:17:24;12;12;
80639;PMS5003;69992;60.170;24.692;2024-03-02T04:19:50;9;9;
80639;PMS5003;69992;60.170;24.692;2024-03-02T04:22:16;12;12;
80639;PMS5003;69992;60.170;24.692;2024-03-02T04:24:41;12;12;
80639;PMS5003;69992;60.170;24.692;2024-03-02T04:27:07;15;15;
80639;PMS5003;69992;60.170;24.692;2024-03-02T04:29:33;15;15;
80639;PMS5003;69992;60.170;24.692;2024-03-02T04:31:59;11;11;
80639;PMS5003;69992;60.170;24.692;2024-03-02T04:34:24;12;11;
80639;PMS5003;69992;60.170;24.692;2024-03-02T04:36:50;11;11;
80639;PMS5003;69992;60.170;24.692;2024-03-02T04:39:16;13;13;
80639;PMS5003;69992;60.170;24.692;2024-03-02T04:41:41;11;11;
80639;PMS5003;69992;60.170;24.692;2024-03-02T04:44:07;18;15;
80639;PMS5003;69992;60.170;24.692;2024-03-02T04:46:32;10;9;
80639;PMS5003;69992;60.170;24.692;2024-03-02T04:48:58;15;15;
80639;PMS5003;69992;60.170;24.692;2024-03-02T04:51:24;13;13;
80639;PMS5003;69992;60.170;24.692;2024-03-02T04:53:50;12;11;
80639;PMS5003;69992;60.170;24.692;2024-03-02T04:56:15;15;13;
80639;PMS5003;69992;60.170;24.692;2024-03-02T04:58:41;17;16;
80639;PMS5003;69992;60.170;24.692;2024-03-02T05:01:08;17;16;
80639;PMS5003;69992;60.170;24.692;2024-03-02T05:03:32;15;13;
80639;PMS5003;69992;60.170;24.692;2024-03-02T05:05:58;13;13;
80639;PMS5003;69992;60.170;24.692;2024-03-02T05:08:23;15;12;
80639;PMS5003;69992;60.170;24.692;2024-03-02T05:10:49;13;13;
80639;PMS5003;69992;60.170;24.692;2024-03-02T05:13:15;16;15;
80639;PMS5003;69992;60.170;24.692;2024-03-02T05:15:40;18;16;
80639;PMS5003;69992;60.170;24.692;2024-03-02T05:18:06;18;17;
80639;PMS5003;69992;60.170;24.692;2024-03-02T05:20:31;20;14;
80639;PMS5003;69992;60.170;24.692;2024-03-02T05:22:56;14;13;
80639;PMS5003;69992;60.170;24.692;2024-03-02T05:25:22;16;16;
80639;PMS5003;69992;60.170;24.692;2024-03-02T05:27:48;18;14;
80639;PMS5003;69992;60.170;24.692;2024-03-02T05:30:14;18;17;
80639;PMS5003;69992;60.170;24.692;2024-03-02T05:32:39;18;17;
80639;PMS5003;69992;60.170;24.692;2024-03-02T05:35:05;16;16;
80639;PMS5003;69992;60.170;24.692;2024-03-02T05:37:30;16;13;
80639;PMS5003;69992;60.170;24.692;2024-03-02T05:39:56;17;14;
80639;PMS5003;69992;60.170;24.692;2024-03-02T05:42:21;18;16;
80639;PMS5003;69992;60.170;24.692;2024-03-02T05:44:47;13;13;
80639;PMS5003;69992;60.170;24.692;2024-03-02T05:47:13;14;14;
80639;PMS5003;69992;60.170;24.692;2024-03-02T05:49:39;13;13;
80639;PMS5003;69992;60.170;24.692;2024-03-02T05:52:04;16;14;
80639;PMS5003;69992;60.170;24.692;2024-03-02T05:54:30;13;12;
80639;PMS5003;69992;60.170;24.692;2024-03-02T05:56:56;18;14;
80639;PMS5003;69992;60.170;24.692;2024-03-02T05:59:22;13;11;
80639;PMS5003;69992;60.170;24.692;2024-03-02T06:01:47;11;11;
80639;PMS5003;69992;60.170;24.692;2024-03-02T06:04:13;13;13;
80639;PMS5003;69992;60.170;24.692;2024-03-02T06:06:39;16;13;
80639;PMS5003;69992;60.170;24.692;2024-03-02T06:09:05;13;13;
80639;PMS5003;69992;60.170;24.692;2024-03-02T06:11:30;15;12;
80639;PMS5003;69992;60.170;24.692;2024-03-02T06:13:57;15;15;
80639;PMS5003;69992;60.170;24.692;2024-03-02T06:16:21;16;13;
80639;PMS5003;69992;60.170;24.692;2024-03-02T06:18:46;17;13;
80639;PMS5003;69992;60.170;24.692;2024-03-02T06:21:12;13;12;
80639;PMS5003;69992;60.170;24.692;2024-03-02T06:23:38;14;13;
80639;PMS5003;69992;60.170;24.692;2024-03-02T06:26:06;12;12;
80639;PMS5003;69992;60.170;24.692;2024-03-02T06:28:28;16;16;
80639;PMS5003;69992;60.170;24.692;2024-03-02T06:30:54;14;13;
80639;PMS5003;69992;60.170;24.692;2024-03-02T06:33:20;12;11;
80639;PMS5003;69992;60.170;24.692;2024-03-02T06:35:45;13;12;
80639;PMS5003;69992;60.170;24.692;2024-03-02T06:38:16;13;12;
80639;PMS5003;69992;60.170;24.692;2024-03-02T06:40:38;9;9;
80639;PMS5003;69992;60.170;24.692;2024-03-02T06:43:02;10;10;
80639;PMS5003;69992;60.170;24.692;2024-03-02T06:45:28;11;10;
80639;PMS5003;69992;60.170;24.692;2024-03-02T06:47:54;12;11;
80639;PMS5003;69992;60.170;24.692;2024-03-02T06:50:20;11;11;
80639;PMS5003;69992;60.170;24.692;2024-03-02T06:52:50;11;11;
80639;PMS5003;69992;60.170;24.692;2024-03-02T06:55:14;10;10;
80639;PMS5003;69992;60.170;24.692;2024-03-02T06:57:37;12;12;
80639;PMS5003;69992;60.170;24.692;2024-03-02T07:00:03;9;7;
80639;PMS5003;69992;60.170;24.692;2024-03-02T07:02:28;9;9;
80639;PMS5003;69992;60.170;24.692;2024-03-02T07:04:54;9;9;
80639;PMS5003;69992;60.170;24.692;2024-03-02T07:07:20;7;7;
80639;PMS5003;69992;60.170;24.692;2024-03-02T07:09:46;9;7;
80639;PMS5003;69992;60.170;24.692;2024-03-02T07:12:12;7;6;
80639;PMS5003;69992;60.170;24.692;2024-03-02T07:14:37;6;6;
80639;PMS5003;69992;60.170;24.692;2024-03-02T07:17:03;7;7;
80639;PMS5003;69992;60.170;24.692;2024-03-02T07:19:32;6;5;
80639;PMS5003;69992;60.170;24.692;2024-03-02T07:21:55;6;6;
80639;PMS5003;69992;60.170;24.692;2024-03-02T07:24:20;7;6;
80639;PMS5003;69992;60.170;24.692;2024-03-02T07:26:46;7;7;
80639;PMS5003;69992;60.170;24.692;2024-03-02T07:29:12;9;7;
80639;PMS5003;69992;60.170;24.692;2024-03-02T07:31:38;9;9;
80639;PMS5003;69992;60.170;24.692;2024-03-02T07:34:04;6;5;
80639;PMS5003;69992;60.170;24.692;2024-03-02T07:36:29;6;6;
80639;PMS5003;69992;60.170;24.692;2024-03-02T07:38:55;6;6;
80639;PMS5003;69992;60.170;24.692;2024-03-02T07:41:21;7;7;
80639;PMS5003;69992;60.170;24.692;2024-03-02T07:43:47;6;6;
80639;PMS5003;69992;60.170;24.692;2024-03-02T07:46:12;9;7;
80639;PMS5003;69992;60.170;24.692;2024-03-02T07:48:38;6;6;
80639;PMS5003;69992;60.170;24.692;2024-03-02T07:51:04;5;5;
80639;PMS5003;69992;60.170;24.692;2024-03-02T07:53:30;6;5;
80639;PMS5003;69992;60.170;24.692;2024-03-02T07:55:56;6;5;
80639;PMS5003;69992;60.170;24.692;2024-03-02T07:58:21;5;5;
80639;PMS5003;69992;60.170;24.692;2024-03-02T08:00:46;6;5;
80639;PMS5003;69992;60.170;24.692;2024-03-02T08:03:12;6;5;
80639;PMS5003;69992;60.170;24.692;2024-03-02T08:05:37;6;5;
80639;PMS5003;69992;60.170;24.692;2024-03-02T08:08:03;6;5;
80639;PMS5003;69992;60.170;24.692;2024-03-02T08:10:28;3;3;
80639;PMS5003;69992;60.170;24.692;2024-03-02T08:12:54;4;4;
80639;PMS5003;69992;60.170;24.692;2024-03-02T08:15:20;4;4;
80639;PMS5003;69992;60.170;24.692;2024-03-02T08:17:46;6;5;
80639;PMS5003;69992;60.170;24.692;2024-03-02T08:20:11;4;4;
80639;PMS5003;69992;60.170;24.692;2024-03-02T08:22:37;4;4;
80639;PMS5003;69992;60.170;24.692;2024-03-02T08:25:03;5;5;
80639;PMS5003;69992;60.170;24.692;2024-03-02T08:27:29;5;5;
80639;PMS5003;69992;60.170;24.692;2024-03-02T08:29:54;10;8;
80639;PMS5003;69992;60.170;24.692;2024-03-02T08:32:20;8;4;
80639;PMS5003;69992;60.170;24.692;2024-03-02T08:34:46;5;5;
80639;PMS5003;69992;60.170;24.692;2024-03-02T08:37:11;6;6;
80639;PMS5003;69992;60.170;24.692;2024-03-02T08:39:37;6;6;
80639;PMS5003;69992;60.170;24.692;2024-03-02T08:42:03;4;4;
80639;PMS5003;69992;60.170;24.692;2024-03-02T08:44:29;6;6;
80639;PMS5003;69992;60.170;24.692;2024-03-02T08:46:55;6;6;
80639;PMS5003;69992;60.170;24.692;2024-03-02T08:49:20;5;5;
80639;PMS5003;69992;60.170;24.692;2024-03-02T08:51:46;5;5;
80639;PMS5003;69992;60.170;24.692;2024-03-02T08:54:12;7;7;
80639;PMS5003;69992;60.170;24.692;2024-03-02T08:56:38;7;6;
80639;PMS5003;69992;60.170;24.692;2024-03-02T08:59:03;8;7;
80639;PMS5003;69992;60.170;24.692;2024-03-02T09:01:29;6;6;
80639;PMS5003;69992;60.170;24.692;2024-03-02T09:03:55;7;7;
80639;PMS5003;69992;60.170;24.692;2024-03-02T09:06:20;10;8;
80639;PMS5003;69992;60.170;24.692;2024-03-02T09:08:46;10;10;
80639;PMS5003;69992;60.170;24.692;2024-03-02T09:11:12;8;8;
80639;PMS5003;69992;60.170;24.692;2024-03-02T09:13:38;10;9;
80639;PMS5003;69992;60.170;24.692;2024-03-02T09:16:06;10;9;
80639;PMS5003;69992;60.170;24.692;2024-03-02T09:18:29;10;10;
80639;PMS5003;69992;60.170;24.692;2024-03-02T09:20:54;11;10;
80639;PMS5003;69992;60.170;24.692;2024-03-02T09:23:20;11;10;
80639;PMS5003;69992;60.170;24.692;2024-03-02T09:25:46;10;9;
80639;PMS5003;69992;60.170;24.692;2024-03-02T09:28:14;12;11;
80639;PMS5003;69992;60.170;24.692;2024-03-02T09:30:38;9;9;
80639;PMS5003;69992;60.170;24.692;2024-03-02T09:33:03;11;10;
80639;PMS5003;69992;60.170;24.692;2024-03-02T09:35:29;10;9;
80639;PMS5003;69992;60.170;24.692;2024-03-02T09:37:55;12;12;
80639;PMS5003;69992;60.170;24.692;2024-03-02T09:40:25;12;11;
80639;PMS5003;69992;60.170;24.692;2024-03-02T09:42:49;13;11;
80639;PMS5003;69992;60.170;24.692;2024-03-02T09:45:12;10;10;
80639;PMS5003;69992;60.170;24.692;2024-03-02T09:47:38;14;14;
80639;PMS5003;69992;60.170;24.692;2024-03-02T09:50:03;10;10;
80639;PMS5003;69992;60.170;24.692;2024-03-02T09:52:28;15;15;
80639;PMS5003;69992;60.170;24.692;2024-03-02T09:54:53;14;13;
80639;PMS5003;69992;60.170;24.692;2024-03-02T09:57:18;11;10;
80639;PMS5003;69992;60.170;24.692;2024-03-02T09:59:44;10;10;
80639;PMS5003;69992;60.170;24.692;2024-03-02T10:02:11;11;11;
80639;PMS5003;69992;60.170;24.692;2024-03-02T10:04:36;12;12;
80639;PMS5003;69992;60.170;24.692;2024-03-02T10:09:27;12;11;
80639;PMS5003;69992;60.170;24.692;2024-03-02T10:11:53;10;10;
80639;PMS5003;69992;60.170;24.692;2024-03-02T10:14:18;12;12;
80639;PMS5003;69992;60.170;24.692;2024-03-02T10:16:44;14;14;
80639;PMS5003;69992;60.170;24.692;2024-03-02T10:19:16;12;11;
80639;PMS5003;69992;60.170;24.692;2024-03-02T10:21:37;13;13;
80639;PMS5003;69992;60.170;24.692;2024-03-02T10:24:06;12;12;
80639;PMS5003;69992;60.170;24.692;2024-03-02T10:26:27;13;12;
80639;PMS5003;69992;60.170;24.692;2024-03-02T10:28:56;14;14;
80639;PMS5003;69992;60.170;24.692;2024-03-02T10:31:19;12;12;
80639;PMS5003;69992;60.170;24.692;2024-03-02T10:33:44;15;15;
80639;PMS5003;69992;60.170;24.692;2024-03-02T10:36:10;15;15;
80639;PMS5003;69992;60.170;24.692;2024-03-02T10:38:35;16;16;
80639;PMS5003;69992;60.170;24.692;2024-03-02T10:41:03;13;13;
80639;PMS5003;69992;60.170;24.692;2024-03-02T10:43:27;14;14;
80639;PMS5003;69992;60.170;24.692;2024-03-02T10:45:52;11;11;
80639;PMS5003;69992;60.170;24.692;2024-03-02T10:48:18;13;12;
80639;PMS5003;69992;60.170;24.692;2024-03-02T10:50:43;15;14;
80639;PMS5003;69992;60.170;24.692;2024-03-02T10:53:08;14;14;
80639;PMS5003;69992;60.170;24.692;2024-03-02T10:55:34;13;12;
80639;PMS5003;69992;60.170;24.692;2024-03-02T10:58:00;11;11;
80639;PMS5003;69992;60.170;24.692;2024-03-02T11:00:25;11;11;
80639;PMS5003;69992;60.170;24.692;2024-03-02T11:02:51;17;15;
80639;PMS5003;69992;60.170;24.692;2024-03-02T11:05:19;13;13;
80639;PMS5003;69992;60.170;24.692;2024-03-02T11:07:42;14;13;
80639;PMS5003;69992;60.170;24.692;2024-03-02T11:10:07;15;11;
80639;PMS5003;69992;60.170;24.692;2024-03-02T11:12:34;13;12;
80639;PMS5003;69992;60.170;24.692;2024-03-02T11:14:58;13;11;
80639;PMS5003;69992;60.170;24.692;2024-03-02T11:17:24;13;12;
80639;PMS5003;69992;60.170;24.692;2024-03-02T11:19:49;12;12;
80639;PMS5003;69992;60.170;24.692;2024-03-02T11:22:19;22;17;
80639;PMS5003;69992;60.170;24.692;2024-03-02T11:24:43;14;13;
80639;PMS5003;69992;60.170;24.692;2024-03-02T11:27:07;14;13;
80639;PMS5003;69992;60.170;24.692;2024-03-02T11:31:57;17;13;
80639;PMS5003;69992;60.170;24.692;2024-03-02T11:34:28;12;12;
80639;PMS5003;69992;60.170;24.692;2024-03-02T11:36:48;17;13;
80639;PMS5003;69992;60.170;24.692;2024-03-02T11:39:14;13;13;
80639;PMS5003;69992;60.170;24.692;2024-03-02T11:41:40;13;13;
80639;PMS5003;69992;60.170;24.692;2024-03-02T11:44:05;11;11;
80639;PMS5003;69992;60.170;24.692;2024-03-02T11:46:31;14;14;
80639;PMS5003;69992;60.170;24.692;2024-03-02T11:48:57;14;13;
80639;PMS5003;69992;60.170;24.692;2024-03-02T11:51:23;12;12;
80639;PMS5003;69992;60.170;24.692;2024-03-02T11:53:49;13;11;
80639;PMS5003;69992;60.170;24.692;2024-03-02T11:56:14;12;11;
80639;PMS5003;69992;60.170;24.692;2024-03-02T11:58:39;13;13;
80639;PMS5003;69992;60.170;24.692;2024-03-02T12:01:05;10;10;
80639;PMS5003;69992;60.170;24.692;2024-03-02T12:03:31;12;11;
80639;PMS5003;69992;60.170;24.692;2024-03-02T12:05:57;16;16;
80639;PMS5003;69992;60.170;24.692;2024-03-02T12:08:22;15;14;
80639;PMS5003;69992;60.170;24.692;2024-03-02T12:10:57;13;13;
80639;PMS5003;69992;60.170;24.692;2024-03-02T12:13:13;18;15;
80639;PMS5003;69992;60.170;24.692;2024-03-02T12:15:38;14;14;
80639;PMS5003;69992;60.170;24.692;2024-03-02T12:18:04;17;16;
80639;PMS5003;69992;60.170;24.692;2024-03-02T12:20:30;21;16;
80639;PMS5003;69992;60.170;24.692;2024-03-02T12:22:56;13;13;
80639;PMS5003;69992;60.170;24.692;2024-03-02T12:25:21;13;13;
80639;PMS5003;69992;60.170;24.692;2024-03-02T12:27:46;15;13;
80639;PMS5003;69992;60.170;24.692;2024-03-02T12:30:17;14;14;
80639;PMS5003;69992;60.170;24.692;2024-03-02T12:32:37;15;14;
80639;PMS5003;69992;60.170;24.692;2024-03-02T12:35:04;15;15;
80639;PMS5003;69992;60.170;24.692;2024-03-02T12:37:28;18;16;
80639;PMS5003;69992;60.170;24.692;2024-03-02T12:39:54;14;14;
80639;PMS5003;69992;60.170;24.692;2024-03-02T12:42:20;14;13;
80639;PMS5003;69992;60.170;24.692;2024-03-02T12:44:46;14;14;
80639;PMS5003;69992;60.170;24.692;2024-03-02T12:47:11;20;19;
80639;PMS5003;69992;60.170;24.692;2024-03-02T12:49:37;27;22;
80639;PMS5003;69992;60.170;24.692;2024-03-02T12:52:03;19;15;
80639;PMS5003;69992;60.170;24.692;2024-03-02T12:54:28;14;13;
80639;PMS5003;69992;60.170;24.692;2024-03-02T12:56:54;14;14;
80639;PMS5003;69992;60.170;24.692;2024-03-02T12:59:20;13;13;
80639;PMS5003;69992;60.170;24.692;2024-03-02T13:01:50;19;19;
80639;PMS5003;69992;60.170;24.692;2024-03-02T13:04:11;16;16;
80639;PMS5003;69992;60.170;24.692;2024-03-02T13:06:37;16;15;
80639;PMS5003;69992;60.170;24.692;2024-03-02T13:09:03;15;15;
80639;PMS5003;69992;60.170;24.692;2024-03-02T13:11:28;17;15;
80639;PMS5003;69992;60.170;24.692;2024-03-02T13:13:54;15;14;
80639;PMS5003;69992;60.170;24.692;2024-03-02T13:16:20;14;14;
80639;PMS5003;69992;60.170;24.692;2024-03-02T13:18:49;14;14;
80639;PMS5003;69992;60.170;24.692;2024-03-02T13:21:12;14;14;
80639;PMS5003;69992;60.170;24.692;2024-03-02T13:23:38;16;15;
80639;PMS5003;69992;60.170;24.692;2024-03-02T13:26:04;12;12;
80639;PMS5003;69992;60.170;24.692;2024-03-02T13:28:29;18;16;
80639;PMS5003;69992;60.170;24.692;2024-03-02T13:30:54;19;18;
80639;PMS5003;69992;60.170;24.692;2024-03-02T13:33:20;19;18;
80639;PMS5003;69992;60.170;24.692;2024-03-02T13:35:45;16;15;
80639;PMS5003;69992;60.170;24.692;2024-03-02T13:38:11;11;11;
80639;PMS5003;69992;60.170;24.692;2024-03-02T13:40:37;11;11;
80639;PMS5003;69992;60.170;24.692;2024-03-02T13:43:03;12;12;
80639;PMS5003;69992;60.170;24.692;2024-03-02T13:45:28;11;11;
80639;PMS5003;69992;60.170;24.692;2024-03-02T13:47:54;15;14;
80639;PMS5003;69992;60.170;24.692;2024-03-02T13:50:19;11;11;
80639;PMS5003;69992;60.170;24.692;2024-03-02T13:52:45;14;13;
80639;PMS5003;69992;60.170;24.692;2024-03-02T13:55:10;12;12;
80639;PMS5003;69992;60.170;24.692;2024-03-02T13:57:37;13;13;
80639;PMS5003;69992;60.170;24.692;2024-03-02T14:00:02;10;10;
80639;PMS5003;69992;60.170;24.692;2024-03-02T14:02:28;12;12;
80639;PMS5003;69992;60.170;24.692;2024-03-02T14:04:53;14;13;
80639;PMS5003;69992;60.170;24.692;2024-03-02T14:07:19;13;12;
80639;PMS5003;69992;60.170;24.692;2024-03-02T14:09:45;10;10;
80639;PMS5003;69992;60.170;24.692;2024-03-02T14:12:10;10;9;
80639;PMS5003;69992;60.170;24.692;2024-03-02T14:14:36;11;11;
80639;PMS5003;69992;60.170;24.692;2024-03-02T14:17:03;12;12;
80639;PMS5003;69992;60.170;24.692;2024-03-02T14:19:27;12;11;
80639;PMS5003;69992;60.170;24.692;2024-03-02T14:21:52;11;9;
80639;PMS5003;69992;60.170;24.692;2024-03-02T14:24:18;16;14;
80639;PMS5003;69992;60.170;24.692;2024-03-02T14:26:43;13;13;
80639;PMS5003;69992;60.170;24.692;2024-03-02T14:29:09;14;14;
80639;PMS5003;69992;60.170;24.692;2024-03-02T14:31:35;11;11;
80639;PMS5003;69992;60.170;24.692;2024-03-02T14:34:01;14;13;
80639;PMS5003;69992;60.170;24.692;2024-03-02T14:36:26;19;18;
80639;PMS5003;69992;60.170;24.692;2024-03-02T14:38:52;16;16;
80639;PMS5003;69992;60.170;24.692;2024-03-02T14:41:21;11;11;
80639;PMS5003;69992;60.170;24.692;2024-03-02T14:43:43;11;10;
80639;PMS5003;69992;60.170;24.692;2024-03-02T14:46:09;12;11;
80639;PMS5003;69992;60.170;24.692;2024-03-02T14:48:35;14;13;
80639;PMS5003;69992;60.170;24.692;2024-03-02T14:51:00;14;14;
80639;PMS5003;69992;60.170;24.692;2024-03-02T14:53:26;13;13;
80639;PMS5003;69992;60.170;24.692;2024-03-02T14:55:52;14;14;
80639;PMS5003;69992;60.170;24.692;2024-03-02T14:58:18;20;15;
80639;PMS5003;69992;60.170;24.692;2024-03-02T15:00:43;15;14;
80639;PMS5003;69992;60.170;24.692;2024-03-02T15:03:09;15;15;
80639;PMS5003;69992;60.170;24.692;2024-03-02T15:05:35;20;16;
80639;PMS5003;69992;60.170;24.692;2024-03-02T15:07:59;15;15;
80639;PMS5003;69992;60.170;24.692;2024-03-02T15:10:25;11;11;
80639;PMS5003;69992;60.170;24.692;2024-03-02T15:12:51;12;12;
80639;PMS5003;69992;60.170;24.692;2024-03-02T15:15:17;15;12;
80639;PMS5003;69992;60.170;24.692;2024-03-02T15:17:43;14;13;
80639;PMS5003;69992;60.170;24.692;2024-03-02T15:20:09;12;12;
80639;PMS5003;69992;60.170;24.692;2024-03-02T15:22:34;12;12;
80639;PMS5003;69992;60.170;24.692;2024-03-02T15:25:00;14;11;
80639;PMS5003;69992;60.170;24.692;2024-03-02T15:27:25;11;11;
80639;PMS5003;69992;60.170;24.692;2024-03-02T15:29:54;14;13;
80639;PMS5003;69992;60.170;24.692;2024-03-02T15:32:17;11;11;
80639;PMS5003;69992;60.170;24.692;2024-03-02T15:34:43;13;11;
80639;PMS5003;69992;60.170;24.692;2024-03-02T15:37:08;13;13;
80639;PMS5003;69992;60.170;24.692;2024-03-02T15:39:34;11;11;
80639;PMS5003;69992;60.170;24.692;2024-03-02T15:42:00;13;13;
80639;PMS5003;69992;60.170;24.692;2024-03-02T15:44:26;13;13;
80639;PMS5003;69992;60.170;24.692;2024-03-02T15:46:51;13;12;
80639;PMS5003;69992;60.170;24.692;2024-03-02T15:49:17;11;11;
80639;PMS5003;69992;60.170;24.692;2024-03-02T15:51:43;17;15;
80639;PMS5003;69992;60.170;24.692;2024-03-02T15:54:09;14;13;
80639;PMS5003;69992;60.170;24.692;2024-03-02T15:56:35;14;14;
80639;PMS5003;69992;60.170;24.692;2024-03-02T15:59:00;14;14;